עמוד ראשי
METAR-TAF:

METAR-TAF

שדות תעופה :

Weno, מיקרונזיה

קו רוחב: 07-28N, קו אורך: 151-51E, גובה: 3מטר

תצפית מזג אוויר נוכחית

הדו"ח נערך לפני 40דקות, בשעה 10:51 UTC
רוח 8קשר מכיוון מזרח/צפון-מזרח
טמפרטורת 28 צלסיוס
לחות 89%
לחץ 1009 hPa
ראות: 24.1קילומטר
עננים פזורים בגובה 1400רגל , קומולוס מיגדלי.
עננים בינוניים בגובה 28000רגל

METAR: PTKK 171051Z 06008KT 15SM SCT014TCU BKN280 28/26 A2981 RMK TCU NE-E SW SLP098 T02830256

זמן: 21:31 (11:31 UTC)

תחזית

הדו"ח נערך לפני 11דקות, בשעה 11:20 UTC
תחזית בתוקף מ 17 ב 12 UTC עד 18 ב 12 UTC
רוח 9קשר מכיוון מזרח/צפון-מזרח
ראות: 10קילומטר
מעט עננים בגובה 1400רגל
עננים פזורים בגובה 4000רגל
מ 17 ב 1800UTC
רוח 9קשר מכיוון מזרח
ראות: 10קילומטר
עננים פזורים בגובה 1400רגל
עננים פזורים בגובה 3000רגל
ממטרים במרחב,

TAF: PTKK 171120Z 1712/1812 07009KT P6SM FEW014 SCT040 FM171800 09009KT P6SM VCSH SCT014 SCT030

תצפיות ותחזיות מזג אוויר לגבי יותר מ- 4,000 שדות תעופה ברחבי העולם. דוחות METAR ו- TAF.

התחנות הזמינות מסומנות בנקודות צהובות ואדומות על גבי המפה.

העבר את העכבר לנקודה הצבעונית על מנת לראות את שם התחנה.

לאחר מכן, לחץ כדי לראות את תוכן ואת תחזיות מזג האוויר.

כדי לשנות את המפה: לחץ על הכפתורים הירוקים עם הפלוס השחור כדי להתקרב; על הכפתור הירוק עם המקף כדי להתרחק; או בחיצים הירוקים למפות סמוכות.


METAR-TAF: